Time;durP1;ratioP1;P1;durP2;ratioP2;P2;SDS_P1;SDS_P2;PMS_P1;PMS_P2;Temp;Humidity;BMP_temperature;BMP_pressure;BME280_temperature;BME280_humidity;BME280_pressure;Samples;Min_cycle;Max_cycle;Signal;HPM_P1;HPM_P2
2022/12/29 00:02:16;;;;;;;;;0.00;0.00;;;;;-146.50;100.00;59256.41;5074938;27;45566;-74
2022/12/29 00:04:42;;;;;;;;;0.00;0.00;;;;;-146.50;100.00;59256.41;5109910;27;45643;-74
2022/12/29 00:07:08;;;;;;;;;1.00;0.00;;;;;-146.50;100.00;59256.41;5076840;27;45382;-74
2022/12/29 00:09:34;;;;;;;;;0.00;0.00;;;;;-146.50;100.00;59256.41;5074275;27;45459;-74
2022/12/29 00:12:01;;;;;;;;;0.00;0.00;;;;;-146.50;100.00;59256.41;5078237;27;45433;-73
2022/12/29 00:17:12;;;;;;;;;0.00;0.00;;;;;-146.50;100.00;59256.41;5086875;27;45420;-72
2022/12/29 00:36:16;;;;;;;;;2.33;1.00;;;;;-146.50;100.00;59256.41;5076807;28;45372;-72
2022/12/29 00:44:15;;;;;;;;;0.33;0.00;;;;;-146.50;100.00;59256.41;5076639;28;45342;-77
2022/12/29 00:46:42;;;;;;;;;0.00;0.00;;;;;-146.50;100.00;59256.41;5071756;28;45926;-76
2022/12/29 00:51:55;;;;;;;;;2.00;1.00;;;;;-146.50;100.00;59256.41;5070035;28;45398;-75
2022/12/29 00:54:21;;;;;;;;;0.00;0.00;;;;;-146.50;100.00;59256.41;5081004;27;45414;-74
2022/12/29 00:56:48;;;;;;;;;0.00;0.00;;;;;-146.50;100.00;59256.41;5075941;28;46232;-74
2022/12/29 00:59:14;;;;;;;;;0.00;0.00;;;;;-146.50;100.00;59256.41;5075918;28;45724;-74
2022/12/29 01:01:40;;;;;;;;;0.00;0.00;;;;;-146.50;100.00;59256.41;5074492;28;45410;-73
2022/12/29 01:04:06;;;;;;;;;0.00;0.00;;;;;-146.50;100.00;59256.41;5075925;27;45233;-73
2022/12/29 01:06:33;;;;;;;;;0.00;0.00;;;;;-146.50;100.00;59256.41;5075731;27;45392;-74
2022/12/29 01:11:42;;;;;;;;;0.00;0.00;;;;;-146.50;100.00;59256.41;5073680;28;45260;-73
2022/12/29 01:14:08;;;;;;;;;0.00;0.00;;;;;-146.50;100.00;59256.41;5075391;27;45470;-72
2022/12/29 01:16:33;;;;;;;;;0.33;0.00;;;;;-146.50;100.00;59256.41;5075128;28;45366;-74
2022/12/29 01:18:59;;;;;;;;;0.00;0.00;;;;;-146.50;100.00;59256.41;5074482;27;45487;-71
2022/12/29 01:21:25;;;;;;;;;0.33;0.00;;;;;-146.50;100.00;59256.41;5066012;27;46290;-73
2022/12/29 01:23:50;;;;;;;;;0.00;0.00;;;;;-146.50;100.00;59256.41;5075231;27;45524;-73
2022/12/29 01:26:17;;;;;;;;;0.00;0.00;;;;;-146.50;100.00;59256.41;5076256;27;46754;-73
2022/12/29 01:28:43;;;;;;;;;0.00;0.00;;;;;-146.50;100.00;59256.41;5076964;27;45437;-74
2022/12/29 01:31:10;;;;;;;;;0.00;0.00;;;;;-146.50;100.00;59256.41;5076528;27;45539;-73
2022/12/29 01:33:35;;;;;;;;;0.00;0.00;;;;;-146.50;100.00;59256.41;5073661;27;45364;-72
2022/12/29 01:36:05;;;;;;;;;0.00;0.00;;;;;-146.50;100.00;59256.41;5076168;27;45539;-72
2022/12/29 01:38:31;;;;;;;;;0.00;0.00;;;;;-146.50;100.00;59256.41;5075490;27;45350;-72
2022/12/29 01:40:57;;;;;;;;;0.00;0.00;;;;;-146.50;100.00;59256.41;5073874;27;45609;-73
2022/12/29 01:43:40;;;;;;;;;0.00;0.00;;;;;-146.50;100.00;59256.41;5075582;27;45358;-72
2022/12/29 01:46:15;;;;;;;;;0.00;0.00;;;;;-146.50;100.00;59256.41;5075914;27;46733;-72
2022/12/29 01:48:42;;;;;;;;;0.00;0.00;;;;;-146.50;100.00;59256.41;5071767;27;45579;-72
2022/12/29 01:51:08;;;;;;;;;0.00;0.00;;;;;-146.50;100.00;59256.41;5075854;27;45431;-73
2022/12/29 01:53:36;;;;;;;;;2.00;0.00;;;;;-146.50;100.00;59256.41;5090756;27;45380;-73
2022/12/29 01:56:07;;;;;;;;;0.00;0.00;;;;;-146.50;100.00;59256.41;5078367;27;46266;-73
2022/12/29 01:58:37;;;;;;;;;2.00;0.00;;;;;-146.50;100.00;59256.41;5087435;27;45429;-73
2022/12/29 02:01:03;;;;;;;;;0.00;0.00;;;;;-146.50;100.00;59256.41;5085737;27;45521;-74
2022/12/29 02:03:32;;;;;;;;;0.00;0.00;;;;;-146.50;100.00;59256.41;5080233;27;45431;-74
2022/12/29 02:06:26;;;;;;;;;0.00;0.00;;;;;-146.50;100.00;59256.41;5091491;27;45432;-74
2022/12/29 02:08:55;;;;;;;;;0.00;0.00;;;;;-146.50;100.00;59256.41;5080270;27;45697;-74
2022/12/29 02:11:23;;;;;;;;;0.00;0.00;;;;;-146.50;100.00;59256.41;5081413;27;45664;-73
2022/12/29 02:13:48;;;;;;;;;0.00;0.00;;;;;-146.50;100.00;59256.41;5089956;27;45578;-73
2022/12/29 02:16:34;;;;;;;;;1.00;0.00;;;;;-146.50;100.00;59256.41;5078589;27;45410;-73
2022/12/29 02:19:08;;;;;;;;;0.00;0.00;;;;;-146.50;100.00;59256.41;5084052;27;45471;-72
2022/12/29 02:21:39;;;;;;;;;0.00;0.00;;;;;-146.50;100.00;59256.41;5084606;27;45438;-72
2022/12/29 02:24:23;;;;;;;;;0.00;0.00;;;;;-146.50;100.00;59256.41;5091481;27;45301;-73
2022/12/29 02:26:57;;;;;;;;;0.00;0.00;;;;;-146.50;100.00;59256.41;5083360;27;45645;-72
2022/12/29 02:29:37;;;;;;;;;0.00;0.00;;;;;-146.50;100.00;59256.41;5081050;27;45298;-72
2022/12/29 02:32:16;;;;;;;;;1.00;0.00;;;;;-146.50;100.00;59256.41;5091279;27;45505;-72
2022/12/29 02:34:47;;;;;;;;;0.00;0.00;;;;;-146.50;100.00;59256.41;5078014;27;45379;-72
2022/12/29 02:37:59;;;;;;;;;0.00;0.00;;;;;-146.50;100.00;59256.41;5072641;28;45810;-73
2022/12/29 02:40:30;;;;;;;;;1.67;0.00;;;;;-146.50;100.00;59256.41;5073349;27;45513;-73
2022/12/29 02:43:08;;;;;;;;;0.00;0.00;;;;;-146.50;100.00;59256.41;5073836;28;45723;-73
2022/12/29 02:45:41;;;;;;;;;1.00;0.00;;;;;-146.50;100.00;59256.41;5072672;28;45709;-74
2022/12/29 02:48:18;;;;;;;;;0.00;0.00;;;;;-146.50;100.00;59256.41;5074389;28;47047;-75
2022/12/29 02:50:57;;;;;;;;;0.00;0.00;;;;;-146.50;100.00;59256.41;5078369;27;45302;-74
2022/12/29 02:54:40;;;;;;;;;0.00;0.00;;;;;-146.50;100.00;59256.41;5077204;28;45339;-74
2022/12/29 02:56:09;;;;;;;;;0.33;0.00;;;;;-146.50;100.00;59256.41;5078258;28;45522;-75
2022/12/29 02:58:34;;;;;;;;;0.00;0.00;;;;;-146.50;100.00;59256.41;5077580;27;45475;-75
2022/12/29 03:01:15;;;;;;;;;1.00;0.00;;;;;-146.50;100.00;59256.41;5077923;27;45388;-75
2022/12/29 03:04:04;;;;;;;;;1.67;0.00;;;;;-146.50;100.00;59256.41;5078381;28;45370;-75
2022/12/29 03:06:52;;;;;;;;;0.33;0.00;;;;;-146.50;100.00;59256.41;5076583;28;45487;-74
2022/12/29 03:09:42;;;;;;;;;0.00;0.00;;;;;-146.50;100.00;59256.41;5077477;27;45489;-74
2022/12/29 03:16:05;;;;;;;;;0.00;0.00;;;;;-146.50;100.00;59256.41;5078123;28;45467;-75
2022/12/29 03:18:55;;;;;;;;;0.00;0.00;;;;;-146.50;100.00;59256.41;5077581;27;45428;-75
2022/12/29 03:22:26;;;;;;;;;0.00;0.00;;;;;-146.50;100.00;59256.41;5077752;28;45501;-72
2022/12/29 03:24:10;;;;;;;;;0.00;0.00;;;;;-146.50;100.00;59256.41;5077396;28;45674;-73
2022/12/29 03:26:37;;;;;;;;;0.00;0.00;;;;;-146.50;100.00;59256.41;5076232;28;45468;-75
2022/12/29 03:29:05;;;;;;;;;0.00;0.00;;;;;-146.50;100.00;59256.41;5077935;27;45466;-75
2022/12/29 03:31:31;;;;;;;;;0.00;0.00;;;;;-146.50;100.00;59256.41;5076911;27;47925;-74
2022/12/29 03:33:57;;;;;;;;;0.00;0.00;;;;;-146.50;100.00;59256.41;5077298;27;45448;-74
2022/12/29 03:36:47;;;;;;;;;0.00;0.00;;;;;-146.50;100.00;59256.41;5077058;27;45548;-74
2022/12/29 03:39:13;;;;;;;;;0.33;0.00;;;;;-146.50;100.00;59256.41;5076952;27;45449;-75
2022/12/29 03:41:44;;;;;;;;;0.00;0.00;;;;;-146.50;100.00;59256.41;5077205;27;47555;-73
2022/12/29 03:44:10;;;;;;;;;0.00;0.00;;;;;-146.50;100.00;59256.41;5077381;27;45377;-74
2022/12/29 03:46:35;;;;;;;;;0.00;0.00;;;;;-146.50;100.00;59256.41;5076458;28;45445;-75
2022/12/29 03:49:01;;;;;;;;;1.00;0.00;;;;;-146.50;100.00;59256.41;5077575;27;45341;-74
2022/12/29 03:51:26;;;;;;;;;0.00;0.00;;;;;-146.50;100.00;59256.41;5077192;28;46324;-73
2022/12/29 03:53:52;;;;;;;;;1.00;0.00;;;;;-146.50;100.00;59256.41;5077185;27;45311;-75
2022/12/29 03:56:17;;;;;;;;;0.00;0.00;;;;;-146.50;100.00;59256.41;5077050;27;45361;-74
2022/12/29 03:58:42;;;;;;;;;0.00;0.00;;;;;-146.50;100.00;59256.41;5077092;27;45452;-74
2022/12/29 04:01:08;;;;;;;;;0.00;0.00;;;;;-146.50;100.00;59256.41;5075604;27;46400;-74
2022/12/29 04:03:33;;;;;;;;;0.33;0.00;;;;;-146.50;100.00;59256.41;5075308;28;45830;-75
2022/12/29 04:05:59;;;;;;;;;1.00;0.00;;;;;-146.50;100.00;59256.41;5077015;27;45568;-76
2022/12/29 04:08:24;;;;;;;;;0.00;0.00;;;;;-146.50;100.00;59256.41;5075466;28;45396;-75
2022/12/29 04:10:50;;;;;;;;;0.00;0.00;;;;;-146.50;100.00;59256.41;5075834;28;46220;-75
2022/12/29 04:13:15;;;;;;;;;0.00;0.00;;;;;-146.50;100.00;59256.41;5058823;28;45433;-75
2022/12/29 04:15:42;;;;;;;;;0.00;0.00;;;;;-146.50;100.00;59256.41;5075572;28;45762;-75
2022/12/29 04:18:08;;;;;;;;;0.00;0.00;;;;;-146.50;100.00;59256.41;5076853;27;45299;-75
2022/12/29 04:23:17;;;;;;;;;2.00;0.00;;;;;-146.50;100.00;59256.41;5076782;28;45386;-75
2022/12/29 04:25:45;;;;;;;;;0.00;0.00;;;;;-146.50;100.00;59256.41;5077360;27;45371;-75
2022/12/29 04:28:11;;;;;;;;;0.00;0.00;;;;;-146.50;100.00;59256.41;5077061;27;45386;-74
2022/12/29 04:30:36;;;;;;;;;0.00;0.00;;;;;-146.50;100.00;59256.41;5077039;27;46004;-74
2022/12/29 04:33:01;;;;;;;;;1.00;0.00;;;;;-146.50;100.00;59256.41;5075875;28;45385;-74
2022/12/29 04:35:27;;;;;;;;;0.00;0.00;;;;;-146.50;100.00;59256.41;5077244;27;45538;-74
2022/12/29 04:37:52;;;;;;;;;0.67;0.00;;;;;-146.50;100.00;59256.41;5075498;28;45688;-75
2022/12/29 04:40:17;;;;;;;;;0.00;0.00;;;;;-146.50;100.00;59256.41;5076855;27;46511;-74
2022/12/29 04:42:43;;;;;;;;;0.75;0.75;;;;;-146.50;100.00;59256.41;5078216;27;45514;-74
2022/12/29 04:45:08;;;;;;;;;0.00;0.00;;;;;-146.50;100.00;59256.41;5076965;27;45486;-74
2022/12/29 04:47:34;;;;;;;;;0.00;0.00;;;;;-146.50;100.00;59256.41;5075990;27;45348;-74
2022/12/29 04:49:59;;;;;;;;;1.00;0.00;;;;;-146.50;100.00;59256.41;5077098;27;45297;-73
2022/12/29 04:52:25;;;;;;;;;1.00;0.00;;;;;-146.50;100.00;59256.41;5077481;27;45476;-74
2022/12/29 04:54:50;;;;;;;;;0.00;0.00;;;;;-146.50;100.00;59256.41;5077445;27;45299;-74
2022/12/29 04:57:15;;;;;;;;;0.00;0.00;;;;;-146.50;100.00;59256.41;5077564;27;45369;-74
2022/12/29 04:59:41;;;;;;;;;0.00;0.00;;;;;-146.50;100.00;59256.41;5076304;27;46231;-74
2022/12/29 05:02:06;;;;;;;;;3.33;0.00;;;;;-146.50;100.00;59256.41;5076188;28;45726;-74
2022/12/29 05:04:31;;;;;;;;;0.00;0.00;;;;;-146.50;100.00;59256.41;5077101;27;45329;-74
2022/12/29 05:06:56;;;;;;;;;0.00;0.00;;;;;-146.50;100.00;59256.41;5077225;27;45404;-74
2022/12/29 05:09:23;;;;;;;;;0.00;0.00;;;;;-146.50;100.00;59256.41;5075981;27;46004;-74
2022/12/29 05:11:49;;;;;;;;;2.50;0.00;;;;;-146.50;100.00;59256.41;5075633;28;45490;-74
2022/12/29 05:14:14;;;;;;;;;1.00;0.00;;;;;-146.50;100.00;59256.41;5076049;27;45599;-75
2022/12/29 05:16:39;;;;;;;;;0.33;0.00;;;;;-146.50;100.00;59256.41;5075990;27;45377;-74
2022/12/29 05:19:05;;;;;;;;;0.00;0.00;;;;;-146.50;100.00;59256.41;5074665;28;47508;-74
2022/12/29 05:21:30;;;;;;;;;0.33;0.00;;;;;-146.50;100.00;59256.41;5076023;27;45341;-73
2022/12/29 05:23:55;;;;;;;;;1.00;0.00;;;;;-146.50;100.00;59256.41;5074759;28;45416;-73
2022/12/29 05:26:21;;;;;;;;;0.00;0.00;;;;;-146.50;100.00;59256.41;5075980;27;45477;-74
2022/12/29 05:28:46;;;;;;;;;0.00;0.00;;;;;-146.50;100.00;59256.41;5076039;27;47156;-73
2022/12/29 05:31:12;;;;;;;;;0.00;0.00;;;;;-146.50;100.00;59256.41;5075527;27;45586;-75
2022/12/29 05:33:37;;;;;;;;;0.00;0.00;;;;;-146.50;100.00;59256.41;5076304;27;45432;-74
2022/12/29 05:36:07;;;;;;;;;0.00;0.00;;;;;-146.50;100.00;59256.41;5074482;28;45309;-74
2022/12/29 05:38:33;;;;;;;;;0.00;0.00;;;;;-146.50;100.00;59256.41;5075721;27;45531;-74
2022/12/29 05:40:59;;;;;;;;;0.00;0.00;;;;;-146.50;100.00;59256.41;5075238;27;45346;-73
2022/12/29 05:43:24;;;;;;;;;1.00;0.00;;;;;-146.50;100.00;59256.41;5074749;28;45351;-74
2022/12/29 05:45:49;;;;;;;;;0.00;0.00;;;;;-146.50;100.00;59256.41;5075843;27;45381;-75
2022/12/29 05:48:15;;;;;;;;;2.75;0.00;;;;;-146.50;100.00;59256.41;5075365;28;45589;-74
2022/12/29 05:50:40;;;;;;;;;2.00;1.00;;;;;-146.50;100.00;59256.41;5075722;28;45368;-74
2022/12/29 05:53:06;;;;;;;;;3.50;0.00;;;;;-146.50;100.00;59256.41;5075944;27;45499;-74
2022/12/29 05:55:31;;;;;;;;;2.50;1.00;;;;;-146.50;100.00;59256.41;5075925;27;45352;-75
2022/12/29 05:57:57;;;;;;;;;0.50;0.00;;;;;-146.50;100.00;59256.41;5075335;27;46073;-74
2022/12/29 06:00:23;;;;;;;;;1.75;0.00;;;;;-146.50;100.00;59256.41;5075592;28;45302;-74
2022/12/29 06:02:48;;;;;;;;;7.00;0.00;;;;;-146.50;100.00;59256.41;5075617;27;45341;-74
2022/12/29 06:05:13;;;;;;;;;0.00;0.00;;;;;-146.50;100.00;59256.41;5074199;28;45295;-74
2022/12/29 06:07:39;;;;;;;;;0.67;0.67;;;;;-146.50;100.00;59256.41;5075183;27;47047;-73
2022/12/29 06:10:08;;;;;;;;;0.00;0.00;;;;;-146.50;100.00;59256.41;5075494;27;45353;-73
2022/12/29 06:12:33;;;;;;;;;1.00;0.00;;;;;-146.50;100.00;59256.41;5075466;27;45390;-74
2022/12/29 06:14:58;;;;;;;;;0.00;0.00;;;;;-146.50;100.00;59256.41;5074991;27;45310;-74
2022/12/29 06:17:24;;;;;;;;;0.67;0.00;;;;;-146.50;100.00;59256.41;5074752;27;45343;-73
2022/12/29 06:19:49;;;;;;;;;1.00;0.33;;;;;-146.50;100.00;59256.41;5074728;27;45417;-72
2022/12/29 06:22:15;;;;;;;;;0.00;0.00;;;;;-146.50;100.00;59256.41;5075343;27;45563;-72
2022/12/29 06:24:40;;;;;;;;;0.00;0.00;;;;;-146.50;100.00;59256.41;5074634;27;45406;-72
2022/12/29 06:27:05;;;;;;;;;0.00;0.00;;;;;-146.50;100.00;59256.41;5075013;27;45372;-72
2022/12/29 06:29:31;;;;;;;;;1.00;0.00;;;;;-146.50;100.00;59256.41;5073993;28;45482;-72
2022/12/29 06:31:57;;;;;;;;;1.67;0.33;;;;;-146.50;100.00;59256.41;5075144;27;45472;-72
2022/12/29 06:34:24;;;;;;;;;1.00;0.00;;;;;-146.50;100.00;59256.41;5074868;27;45289;-72
2022/12/29 06:36:49;;;;;;;;;0.00;0.00;;;;;-146.50;100.00;59256.41;5075018;27;45443;-73
2022/12/29 06:39:15;;;;;;;;;0.33;0.33;;;;;-146.50;100.00;59256.41;5074739;27;45617;-73
2022/12/29 06:41:40;;;;;;;;;1.33;0.33;;;;;-146.50;100.00;59256.41;5075261;27;45311;-73
2022/12/29 06:44:05;;;;;;;;;0.00;0.00;;;;;-146.50;100.00;59256.41;5074387;27;45612;-73
2022/12/29 06:46:31;;;;;;;;;2.00;1.00;;;;;-146.50;100.00;59256.41;5069430;28;46355;-73
2022/12/29 06:48:56;;;;;;;;;1.00;0.00;;;;;-146.50;100.00;59256.41;5052871;28;45523;-73
2022/12/29 06:51:21;;;;;;;;;1.00;0.00;;;;;-146.50;100.00;59256.41;5063614;28;45482;-74
2022/12/29 06:53:47;;;;;;;;;0.00;0.00;;;;;-146.50;100.00;59256.41;5075033;27;45325;-74
2022/12/29 06:56:12;;;;;;;;;2.00;0.33;;;;;-146.50;100.00;59256.41;5066329;27;46023;-73
2022/12/29 06:58:38;;;;;;;;;0.75;0.00;;;;;-146.50;100.00;59256.41;5070900;28;45375;-72
2022/12/29 07:01:03;;;;;;;;;0.00;0.00;;;;;-146.50;100.00;59256.41;5072270;28;45342;-73
2022/12/29 07:03:28;;;;;;;;;0.00;0.00;;;;;-146.50;100.00;59256.41;5072943;28;45291;-72
2022/12/29 07:05:54;;;;;;;;;1.00;0.00;;;;;-146.50;100.00;59256.41;5072677;28;45951;-72
2022/12/29 07:08:20;;;;;;;;;0.00;0.00;;;;;-146.50;100.00;59256.41;5072587;28;45373;-72
2022/12/29 07:10:46;;;;;;;;;1.33;0.00;;;;;-146.50;100.00;59256.41;5073369;28;45599;-73
2022/12/29 07:13:11;;;;;;;;;1.00;1.00;;;;;-146.50;100.00;59256.41;5072976;28;45540;-73
2022/12/29 07:15:37;;;;;;;;;0.00;0.00;;;;;-146.50;100.00;59256.41;5071882;28;45372;-73
2022/12/29 07:18:03;;;;;;;;;0.33;0.33;;;;;-146.50;100.00;59256.41;5071094;28;45323;-73
2022/12/29 07:20:29;;;;;;;;;0.00;0.00;;;;;-146.50;100.00;59256.41;5073064;28;45416;-73
2022/12/29 07:22:54;;;;;;;;;1.00;0.00;;;;;-146.50;100.00;59256.41;5072834;27;45247;-73
2022/12/29 07:25:22;;;;;;;;;0.00;0.00;;;;;-146.50;100.00;59256.41;5072104;27;45667;-72
2022/12/29 07:27:48;;;;;;;;;7.00;0.00;;;;;-146.50;100.00;59256.41;5071648;27;45436;-73
2022/12/29 07:30:13;;;;;;;;;0.33;0.33;;;;;-146.50;100.00;59256.41;5072977;27;45563;-73
2022/12/29 07:32:39;;;;;;;;;1.00;0.00;;;;;-146.50;100.00;59256.41;5072563;27;45504;-73
2022/12/29 07:35:05;;;;;;;;;6.00;0.00;;;;;-146.50;100.00;59256.41;5088950;27;47512;-73
2022/12/29 07:37:30;;;;;;;;;2.00;0.00;;;;;-146.50;100.00;59256.41;5076094;28;45479;-72
2022/12/29 07:39:55;;;;;;;;;0.00;0.00;;;;;-146.50;100.00;59256.41;5075887;27;45517;-73
2022/12/29 07:42:21;;;;;;;;;2.33;0.67;;;;;-146.50;100.00;59256.41;5074652;28;45636;-72
2022/12/29 07:44:46;;;;;;;;;1.33;0.00;;;;;-146.50;100.00;59256.41;5076224;27;45526;-72
2022/12/29 07:47:11;;;;;;;;;0.00;0.00;;;;;-146.50;100.00;59256.41;5076100;27;45881;-72
2022/12/29 07:49:37;;;;;;;;;1.00;1.00;;;;;-146.50;100.00;59256.41;5075192;28;45509;-73
2022/12/29 07:52:02;;;;;;;;;2.00;0.67;;;;;-146.50;100.00;59256.41;5075892;27;45496;-72
2022/12/29 07:54:27;;;;;;;;;0.33;0.33;;;;;-146.50;100.00;59256.41;5076039;27;46138;-72
2022/12/29 07:56:53;;;;;;;;;0.67;0.67;;;;;-146.50;100.00;59256.41;5076450;27;45512;-72
2022/12/29 07:59:18;;;;;;;;;0.00;0.00;;;;;-146.50;100.00;59256.41;5076192;28;45436;-73
2022/12/29 08:01:44;;;;;;;;;2.00;0.00;;;;;-146.50;100.00;59256.41;5073259;28;45460;-72
2022/12/29 08:04:09;;;;;;;;;0.00;0.00;;;;;-146.50;100.00;59256.41;5075848;27;45374;-73
2022/12/29 08:06:35;;;;;;;;;0.67;0.67;;;;;-146.50;100.00;59256.41;5075554;28;45524;-72
2022/12/29 08:09:01;;;;;;;;;1.00;1.00;;;;;-146.50;100.00;59256.41;5075825;28;45393;-72
2022/12/29 08:11:26;;;;;;;;;4.67;1.00;;;;;-146.50;100.00;59256.41;5076261;27;45951;-72
2022/12/29 08:13:52;;;;;;;;;2.00;1.00;;;;;-146.50;100.00;59256.41;5075638;27;45852;-73
2022/12/29 08:16:18;;;;;;;;;1.33;1.00;;;;;-146.50;100.00;59256.41;5072218;28;45402;-74
2022/12/29 08:18:44;;;;;;;;;2.33;1.33;;;;;-146.50;100.00;59256.41;5075879;27;45367;-73
2022/12/29 08:21:09;;;;;;;;;5.33;1.33;;;;;-146.50;100.00;59256.41;5075895;27;45363;-73
2022/12/29 08:23:34;;;;;;;;;0.00;0.00;;;;;-146.50;100.00;59256.41;5075953;28;47218;-72
2022/12/29 08:26:03;;;;;;;;;2.00;0.00;;;;;-146.50;100.00;59256.41;5075382;27;45416;-72
2022/12/29 08:28:29;;;;;;;;;1.33;1.00;;;;;-146.50;100.00;59256.41;5077202;27;45347;-72
2022/12/29 08:30:58;;;;;;;;;1.33;0.67;;;;;-146.50;100.00;59256.41;5076322;27;45290;-71
2022/12/29 08:33:23;;;;;;;;;4.67;2.00;;;;;-146.50;100.00;59256.41;5076674;27;45366;-72
2022/12/29 08:35:49;;;;;;;;;1.00;0.00;;;;;-146.50;100.00;59256.41;5075578;28;45693;-71
2022/12/29 08:38:14;;;;;;;;;2.25;0.00;;;;;-146.50;100.00;59256.41;5110320;27;45527;-71
2022/12/29 08:40:39;;;;;;;;;0.33;0.33;;;;;-146.50;100.00;59256.41;5076458;28;45642;-72
2022/12/29 08:43:06;;;;;;;;;4.00;1.67;;;;;-146.50;100.00;59256.41;5074483;28;46044;-72
2022/12/29 08:45:32;;;;;;;;;0.00;0.00;;;;;-146.50;100.00;59256.41;5074935;28;45487;-72
2022/12/29 08:47:57;;;;;;;;;4.33;2.00;;;;;-146.50;100.00;59256.41;5073032;28;45472;-72
2022/12/29 08:50:22;;;;;;;;;1.00;1.00;;;;;-146.50;100.00;59256.41;5091190;27;45547;-72
2022/12/29 08:52:48;;;;;;;;;1.00;0.00;;;;;-146.50;100.00;59256.41;5107105;27;45459;-72
2022/12/29 08:55:13;;;;;;;;;1.67;0.67;;;;;-146.50;100.00;59256.41;5075048;28;45440;-72
2022/12/29 08:57:38;;;;;;;;;0.00;0.00;;;;;-146.50;100.00;59256.41;5074614;27;45600;-73
2022/12/29 09:00:05;;;;;;;;;2.00;1.00;;;;;-146.50;100.00;59256.41;5074990;28;45496;-72
2022/12/29 09:02:31;;;;;;;;;3.00;0.67;;;;;-146.50;100.00;59256.41;5074076;28;45458;-72
2022/12/29 09:04:57;;;;;;;;;0.33;0.00;;;;;-146.50;100.00;59256.41;5072595;28;45275;-72
2022/12/29 09:07:23;;;;;;;;;1.67;1.00;;;;;-146.50;100.00;59256.41;5074169;27;45652;-72
2022/12/29 09:09:49;;;;;;;;;1.00;1.00;;;;;-146.50;100.00;59256.41;5074722;28;45409;-72
2022/12/29 09:12:15;;;;;;;;;1.67;1.67;;;;;-146.50;100.00;59256.41;5074627;27;45573;-72
2022/12/29 09:14:42;;;;;;;;;5.75;3.00;;;;;-146.50;100.00;59256.41;5073485;28;45393;-73
2022/12/29 09:19:52;;;;;;;;;4.00;1.00;;;;;-146.50;100.00;59256.41;5071814;28;45410;-73
2022/12/29 09:22:17;;;;;;;;;2.00;0.67;;;;;-146.50;100.00;59256.41;5107024;27;45448;-73
2022/12/29 09:24:43;;;;;;;;;1.50;0.75;;;;;-146.50;100.00;59256.41;5074151;28;45457;-73
2022/12/29 09:27:08;;;;;;;;;0.25;0.25;;;;;-146.50;100.00;59256.41;5107332;27;45463;-73
2022/12/29 09:29:34;;;;;;;;;0.00;0.00;;;;;-146.50;100.00;59256.41;5074621;28;45374;-73
2022/12/29 09:31:59;;;;;;;;;0.00;0.00;;;;;-146.50;100.00;59256.41;5074590;27;45445;-73
2022/12/29 09:34:24;;;;;;;;;2.33;1.33;;;;;-146.50;100.00;59256.41;5071980;28;45372;-73
2022/12/29 09:36:50;;;;;;;;;3.33;2.00;;;;;-146.50;100.00;59256.41;5073507;28;45841;-73
2022/12/29 09:39:15;;;;;;;;;1.00;1.00;;;;;-146.50;100.00;59256.41;5074328;28;45414;-73
2022/12/29 09:41:52;;;;;;;;;1.67;1.67;;;;;-146.50;100.00;59256.41;5073746;27;46077;-73
2022/12/29 09:44:42;;;;;;;;;4.00;1.67;;;;;-146.50;100.00;59256.41;5073874;28;45631;-73
2022/12/29 09:47:13;;;;;;;;;1.00;0.00;;;;;-146.50;100.00;59256.41;5072306;28;45364;-72
2022/12/29 09:49:58;;;;;;;;;3.00;2.00;;;;;-146.50;100.00;59256.41;5074274;27;45395;-73
2022/12/29 09:52:42;;;;;;;;;1.00;1.00;;;;;-146.50;100.00;59256.41;5074199;28;47208;-73
2022/12/29 09:55:15;;;;;;;;;3.00;1.67;;;;;-146.50;100.00;59256.41;5071587;28;45745;-73
2022/12/29 09:57:49;;;;;;;;;2.75;1.75;;;;;-146.50;100.00;59256.41;5075157;28;45406;-72
2022/12/29 10:00:17;;;;;;;;;2.25;1.00;;;;;-146.50;100.00;59256.41;5075866;27;45366;-72
2022/12/29 10:02:51;;;;;;;;;1.00;1.00;;;;;-146.50;100.00;59256.41;5074735;27;47460;-72
2022/12/29 10:05:43;;;;;;;;;1.00;1.00;;;;;-146.50;100.00;59256.41;5074780;28;45624;-70
2022/12/29 10:08:29;;;;;;;;;2.00;1.00;;;;;-146.50;100.00;59256.41;5074951;27;45392;-71
2022/12/29 10:10:58;;;;;;;;;5.50;3.00;;;;;-146.50;100.00;59256.41;5075072;27;45425;-72
2022/12/29 10:13:28;;;;;;;;;1.25;1.00;;;;;-146.50;100.00;59256.41;5074996;27;46339;-73
2022/12/29 10:16:14;;;;;;;;;3.00;0.00;;;;;-146.50;100.00;59256.41;5074993;27;45385;-73
2022/12/29 10:19:10;;;;;;;;;1.67;1.00;;;;;-146.50;100.00;59256.41;5073847;28;45460;-72
2022/12/29 10:21:38;;;;;;;;;1.67;1.00;;;;;-146.50;100.00;59256.41;5074426;28;45519;-72
2022/12/29 10:24:10;;;;;;;;;1.00;0.00;;;;;-146.50;100.00;59256.41;5090573;27;46542;-73
2022/12/29 10:26:39;;;;;;;;;3.25;1.75;;;;;-146.50;100.00;59256.41;5074701;27;45515;-73
2022/12/29 10:29:14;;;;;;;;;2.00;0.00;;;;;-146.50;100.00;59256.41;5090673;27;45396;-73
2022/12/29 10:31:46;;;;;;;;;0.00;0.00;;;;;-146.50;100.00;59256.41;5075268;27;45319;-72
2022/12/29 10:34:22;;;;;;;;;5.25;2.00;;;;;-146.50;100.00;59256.41;5074879;28;45346;-73
2022/12/29 10:36:52;;;;;;;;;4.67;2.00;;;;;-146.50;100.00;59256.41;5074756;27;45420;-74
2022/12/29 10:39:26;;;;;;;;;2.00;2.00;;;;;-146.50;100.00;59256.41;5074671;27;45489;-73
2022/12/29 10:42:28;;;;;;;;;5.50;4.00;;;;;-146.50;100.00;59256.41;5073353;28;45437;-74
2022/12/29 10:44:55;;;;;;;;;3.00;2.00;;;;;-146.50;100.00;59256.41;5074692;27;46296;-74
2022/12/29 10:47:26;;;;;;;;;6.00;4.00;;;;;-146.50;100.00;59256.41;5074635;28;45461;-74
2022/12/29 10:49:52;;;;;;;;;2.25;2.00;;;;;-146.50;100.00;59256.41;5074722;28;45298;-77
2022/12/29 10:52:20;;;;;;;;;10.75;4.75;;;;;-146.50;100.00;59256.41;5074731;28;45354;-77
2022/12/29 10:55:12;;;;;;;;;6.50;3.00;;;;;-146.50;100.00;59256.41;5074645;27;45395;-76
2022/12/29 10:57:43;;;;;;;;;5.50;2.50;;;;;-146.50;100.00;59256.41;5074861;27;45420;-76
2022/12/29 11:00:16;;;;;;;;;4.50;4.25;;;;;-146.50;100.00;59256.41;5073808;28;45378;-77
2022/12/29 11:02:47;;;;;;;;;4.00;4.00;;;;;-146.50;100.00;59256.41;5074719;27;45549;-79
2022/12/29 11:05:18;;;;;;;;;2.50;2.50;;;;;-146.50;100.00;59256.41;5072945;28;47667;-75
2022/12/29 11:07:48;;;;;;;;;5.00;4.00;;;;;-146.50;100.00;59256.41;5073822;27;45371;-73
2022/12/29 11:10:30;;;;;;;;;2.00;2.00;;;;;-146.50;100.00;59256.41;5075272;27;45425;-74
2022/12/29 11:13:00;;;;;;;;;1.00;1.00;;;;;-146.50;100.00;59256.41;5078147;27;45356;-73
2022/12/29 11:15:26;;;;;;;;;2.00;1.00;;;;;-146.50;100.00;59256.41;5077419;27;46337;-73
2022/12/29 11:17:59;;;;;;;;;1.25;1.25;;;;;-146.50;100.00;59256.41;5077833;27;45574;-73
2022/12/29 11:20:45;;;;;;;;;3.00;1.33;;;;;-146.50;100.00;59256.41;5078407;27;45773;-73
2022/12/29 11:23:29;;;;;;;;;6.33;4.00;;;;;-146.50;100.00;59256.41;5078030;27;45410;-73
2022/12/29 11:26:09;;;;;;;;;6.00;3.00;;;;;-146.50;100.00;59256.41;5077849;28;45396;-73
2022/12/29 11:28:36;;;;;;;;;1.33;1.00;;;;;-146.50;100.00;59256.41;5078059;28;45294;-73
2022/12/29 11:31:03;;;;;;;;;4.50;2.25;;;;;-146.50;100.00;59256.41;5077976;27;45387;-73
2022/12/29 11:33:29;;;;;;;;;5.00;3.00;;;;;-146.50;100.00;59256.41;5076832;28;45323;-73
2022/12/29 11:36:17;;;;;;;;;4.00;3.00;;;;;-146.50;100.00;59256.41;5076661;28;48471;-73
2022/12/29 11:38:49;;;;;;;;;0.00;0.00;;;;;-146.50;100.00;59256.41;5077855;28;45389;-73
2022/12/29 11:41:23;;;;;;;;;5.50;3.00;;;;;-146.50;100.00;59256.41;5078155;27;45458;-73
2022/12/29 11:43:49;;;;;;;;;2.00;0.00;;;;;-146.50;100.00;59256.41;5078307;28;45390;-73
2022/12/29 11:46:22;;;;;;;;;1.00;1.00;;;;;-146.50;100.00;59256.41;5073443;28;48557;-74
2022/12/29 11:48:48;;;;;;;;;5.00;3.33;;;;;-146.50;100.00;59256.41;5057747;28;45437;-73
2022/12/29 11:51:23;;;;;;;;;5.75;5.75;;;;;-146.50;100.00;59256.41;5100983;27;45428;-73
2022/12/29 11:53:57;;;;;;;;;3.00;2.00;;;;;-146.50;100.00;59256.41;5078312;27;45468;-73
2022/12/29 11:56:36;;;;;;;;;1.33;1.00;;;;;-146.50;100.00;59256.41;5077349;28;47346;-72
2022/12/29 11:59:29;;;;;;;;;1.67;1.67;;;;;-146.50;100.00;59256.41;5079449;27;45429;-73